sensor_id;sensor_type;location;lat;lon;timestamp;P1;durP1;ratioP1;P2;durP2;ratioP2
18879;SDS011;9572;52.378;13.404;2023-07-24T00:02:14;3.22;;;2.50;;
18879;SDS011;9572;52.378;13.404;2023-07-24T00:04:41;2.78;;;2.30;;
18879;SDS011;9572;52.378;13.404;2023-07-24T00:07:08;2.38;;;2.17;;
18879;SDS011;9572;52.378;13.404;2023-07-24T00:09:37;3.95;;;2.47;;
18879;SDS011;9572;52.378;13.404;2023-07-24T00:12:04;4.50;;;2.92;;
18879;SDS011;9572;52.378;13.404;2023-07-24T00:14:32;2.17;;;2.00;;
18879;SDS011;9572;52.378;13.404;2023-07-24T00:16:59;2.33;;;2.00;;
18879;SDS011;9572;52.378;13.404;2023-07-24T00:19:26;4.13;;;2.00;;
18879;SDS011;9572;52.378;13.404;2023-07-24T00:21:54;3.20;;;2.70;;
18879;SDS011;9572;52.378;13.404;2023-07-24T00:24:21;4.07;;;2.63;;
18879;SDS011;9572;52.378;13.404;2023-07-24T00:26:51;2.75;;;2.40;;
18879;SDS011;9572;52.378;13.404;2023-07-24T00:29:19;6.43;;;2.70;;
18879;SDS011;9572;52.378;13.404;2023-07-24T00:31:46;3.60;;;2.60;;
18879;SDS011;9572;52.378;13.404;2023-07-24T00:34:14;3.47;;;2.50;;
18879;SDS011;9572;52.378;13.404;2023-07-24T00:36:41;3.00;;;2.70;;
18879;SDS011;9572;52.378;13.404;2023-07-24T00:39:08;3.42;;;2.50;;
18879;SDS011;9572;52.378;13.404;2023-07-24T00:41:35;3.63;;;2.72;;
18879;SDS011;9572;52.378;13.404;2023-07-24T00:44:04;3.95;;;2.60;;
18879;SDS011;9572;52.378;13.404;2023-07-24T00:46:30;2.55;;;2.35;;
18879;SDS011;9572;52.378;13.404;2023-07-24T00:48:58;5.88;;;2.42;;
18879;SDS011;9572;52.378;13.404;2023-07-24T00:51:28;4.88;;;2.65;;
18879;SDS011;9572;52.378;13.404;2023-07-24T00:53:55;3.15;;;2.38;;
18879;SDS011;9572;52.378;13.404;2023-07-24T00:56:23;3.50;;;2.47;;
18879;SDS011;9572;52.378;13.404;2023-07-24T00:58:50;5.15;;;2.60;;
18879;SDS011;9572;52.378;13.404;2023-07-24T01:01:20;5.60;;;3.33;;
18879;SDS011;9572;52.378;13.404;2023-07-24T01:03:47;3.78;;;2.63;;
18879;SDS011;9572;52.378;13.404;2023-07-24T01:06:15;5.43;;;2.83;;
18879;SDS011;9572;52.378;13.404;2023-07-24T01:08:42;3.58;;;2.30;;
18879;SDS011;9572;52.378;13.404;2023-07-24T01:11:10;3.63;;;2.75;;
18879;SDS011;9572;52.378;13.404;2023-07-24T01:13:42;3.00;;;2.58;;
18879;SDS011;9572;52.378;13.404;2023-07-24T01:16:17;3.92;;;2.75;;
18879;SDS011;9572;52.378;13.404;2023-07-24T01:18:48;7.80;;;2.50;;
18879;SDS011;9572;52.378;13.404;2023-07-24T01:21:17;3.05;;;2.45;;
18879;SDS011;9572;52.378;13.404;2023-07-24T01:23:58;4.00;;;2.80;;
18879;SDS011;9572;52.378;13.404;2023-07-24T01:26:36;4.57;;;2.80;;
18879;SDS011;9572;52.378;13.404;2023-07-24T01:29:03;4.75;;;2.90;;
18879;SDS011;9572;52.378;13.404;2023-07-24T01:31:30;4.40;;;2.72;;
18879;SDS011;9572;52.378;13.404;2023-07-24T01:33:57;4.32;;;2.90;;
18879;SDS011;9572;52.378;13.404;2023-07-24T01:36:24;5.60;;;3.00;;
18879;SDS011;9572;52.378;13.404;2023-07-24T01:38:51;7.45;;;2.90;;
18879;SDS011;9572;52.378;13.404;2023-07-24T01:41:18;4.90;;;3.00;;
18879;SDS011;9572;52.378;13.404;2023-07-24T01:43:48;5.43;;;2.97;;
18879;SDS011;9572;52.378;13.404;2023-07-24T01:46:16;4.75;;;3.10;;
18879;SDS011;9572;52.378;13.404;2023-07-24T01:48:43;6.70;;;3.00;;
18879;SDS011;9572;52.378;13.404;2023-07-24T01:51:11;4.60;;;2.80;;
18879;SDS011;9572;52.378;13.404;2023-07-24T01:53:39;3.33;;;2.53;;
18879;SDS011;9572;52.378;13.404;2023-07-24T01:56:06;3.28;;;2.47;;
18879;SDS011;9572;52.378;13.404;2023-07-24T01:58:33;4.88;;;2.78;;
18879;SDS011;9572;52.378;13.404;2023-07-24T02:01:01;2.90;;;2.58;;
18879;SDS011;9572;52.378;13.404;2023-07-24T02:03:28;3.47;;;2.53;;
18879;SDS011;9572;52.378;13.404;2023-07-24T02:05:55;3.75;;;2.40;;
18879;SDS011;9572;52.378;13.404;2023-07-24T02:08:22;3.67;;;2.25;;
18879;SDS011;9572;52.378;13.404;2023-07-24T02:10:49;3.97;;;2.30;;
18879;SDS011;9572;52.378;13.404;2023-07-24T02:13:16;3.45;;;2.58;;
18879;SDS011;9572;52.378;13.404;2023-07-24T02:15:43;4.63;;;2.80;;
18879;SDS011;9572;52.378;13.404;2023-07-24T02:18:11;2.38;;;2.17;;
18879;SDS011;9572;52.378;13.404;2023-07-24T02:20:38;5.28;;;2.58;;
18879;SDS011;9572;52.378;13.404;2023-07-24T02:23:06;2.63;;;2.28;;
18879;SDS011;9572;52.378;13.404;2023-07-24T02:25:35;2.80;;;2.50;;
18879;SDS011;9572;52.378;13.404;2023-07-24T02:28:02;3.08;;;2.45;;
18879;SDS011;9572;52.378;13.404;2023-07-24T02:30:30;2.40;;;2.03;;
18879;SDS011;9572;52.378;13.404;2023-07-24T02:32:57;2.85;;;2.38;;
18879;SDS011;9572;52.378;13.404;2023-07-24T02:35:25;5.15;;;2.70;;
18879;SDS011;9572;52.378;13.404;2023-07-24T02:37:52;6.10;;;2.30;;
18879;SDS011;9572;52.378;13.404;2023-07-24T02:40:19;2.63;;;2.22;;
18879;SDS011;9572;52.378;13.404;2023-07-24T02:42:46;2.38;;;2.17;;
18879;SDS011;9572;52.378;13.404;2023-07-24T02:45:13;4.00;;;2.22;;
18879;SDS011;9572;52.378;13.404;2023-07-24T02:47:40;3.28;;;2.50;;
18879;SDS011;9572;52.378;13.404;2023-07-24T02:50:08;3.65;;;2.53;;
18879;SDS011;9572;52.378;13.404;2023-07-24T02:52:36;6.53;;;2.40;;
18879;SDS011;9572;52.378;13.404;2023-07-24T02:55:04;2.78;;;2.28;;
18879;SDS011;9572;52.378;13.404;2023-07-24T02:57:31;2.50;;;2.15;;
18879;SDS011;9572;52.378;13.404;2023-07-24T02:59:58;2.83;;;2.50;;
18879;SDS011;9572;52.378;13.404;2023-07-24T03:02:25;5.93;;;2.35;;
18879;SDS011;9572;52.378;13.404;2023-07-24T03:04:52;2.10;;;1.90;;
18879;SDS011;9572;52.378;13.404;2023-07-24T03:07:19;3.10;;;2.42;;
18879;SDS011;9572;52.378;13.404;2023-07-24T03:09:48;1.98;;;1.88;;
18879;SDS011;9572;52.378;13.404;2023-07-24T03:12:17;2.80;;;2.17;;
18879;SDS011;9572;52.378;13.404;2023-07-24T03:14:44;4.53;;;1.85;;
18879;SDS011;9572;52.378;13.404;2023-07-24T03:17:11;3.58;;;1.90;;
18879;SDS011;9572;52.378;13.404;2023-07-24T03:19:40;3.10;;;2.30;;
18879;SDS011;9572;52.378;13.404;2023-07-24T03:22:08;3.42;;;2.25;;
18879;SDS011;9572;52.378;13.404;2023-07-24T03:24:35;5.57;;;2.20;;
18879;SDS011;9572;52.378;13.404;2023-07-24T03:27:03;5.30;;;1.73;;
18879;SDS011;9572;52.378;13.404;2023-07-24T03:29:30;2.30;;;1.67;;
18879;SDS011;9572;52.378;13.404;2023-07-24T03:31:57;2.30;;;1.60;;
18879;SDS011;9572;52.378;13.404;2023-07-24T03:34:24;1.98;;;1.83;;
18879;SDS011;9572;52.378;13.404;2023-07-24T03:36:51;2.63;;;1.70;;
18879;SDS011;9572;52.378;13.404;2023-07-24T03:39:19;2.35;;;1.95;;
18879;SDS011;9572;52.378;13.404;2023-07-24T03:41:46;2.03;;;1.83;;
18879;SDS011;9572;52.378;13.404;2023-07-24T03:44:14;3.75;;;1.85;;
18879;SDS011;9572;52.378;13.404;2023-07-24T03:46:41;2.60;;;1.50;;
18879;SDS011;9572;52.378;13.404;2023-07-24T03:49:08;3.33;;;1.50;;
18879;SDS011;9572;52.378;13.404;2023-07-24T03:51:35;2.78;;;2.45;;
18879;SDS011;9572;52.378;13.404;2023-07-24T03:54:02;3.78;;;1.80;;
18879;SDS011;9572;52.378;13.404;2023-07-24T03:56:29;2.38;;;1.85;;
18879;SDS011;9572;52.378;13.404;2023-07-24T03:58:56;2.55;;;1.75;;
18879;SDS011;9572;52.378;13.404;2023-07-24T04:01:25;1.80;;;1.55;;
18879;SDS011;9572;52.378;13.404;2023-07-24T04:03:52;1.80;;;1.42;;
18879;SDS011;9572;52.378;13.404;2023-07-24T04:06:19;2.35;;;1.30;;
18879;SDS011;9572;52.378;13.404;2023-07-24T04:08:46;5.38;;;1.40;;
18879;SDS011;9572;52.378;13.404;2023-07-24T04:11:13;1.98;;;1.30;;
18879;SDS011;9572;52.378;13.404;2023-07-24T04:13:40;1.60;;;1.50;;
18879;SDS011;9572;52.378;13.404;2023-07-24T04:16:07;1.35;;;1.17;;
18879;SDS011;9572;52.378;13.404;2023-07-24T04:18:36;1.88;;;1.60;;
18879;SDS011;9572;52.378;13.404;2023-07-24T04:21:03;1.77;;;1.30;;
18879;SDS011;9572;52.378;13.404;2023-07-24T04:23:28;3.80;;;1.50;;
18879;SDS011;9572;52.378;13.404;2023-07-24T04:25:55;1.60;;;1.33;;
18879;SDS011;9572;52.378;13.404;2023-07-24T04:28:22;2.33;;;1.30;;
18879;SDS011;9572;52.378;13.404;2023-07-24T04:30:51;3.13;;;1.45;;
18879;SDS011;9572;52.378;13.404;2023-07-24T04:33:18;5.78;;;1.27;;
18879;SDS011;9572;52.378;13.404;2023-07-24T04:35:48;6.10;;;1.20;;
18879;SDS011;9572;52.378;13.404;2023-07-24T04:38:15;1.20;;;0.90;;
18879;SDS011;9572;52.378;13.404;2023-07-24T04:40:43;3.13;;;1.30;;
18879;SDS011;9572;52.378;13.404;2023-07-24T04:43:10;3.00;;;1.20;;
18879;SDS011;9572;52.378;13.404;2023-07-24T04:45:37;2.70;;;0.95;;
18879;SDS011;9572;52.378;13.404;2023-07-24T04:48:05;1.15;;;1.02;;
18879;SDS011;9572;52.378;13.404;2023-07-24T04:50:32;1.48;;;1.00;;
18879;SDS011;9572;52.378;13.404;2023-07-24T04:53:00;1.55;;;1.15;;
18879;SDS011;9572;52.378;13.404;2023-07-24T04:55:27;1.20;;;1.10;;
18879;SDS011;9572;52.378;13.404;2023-07-24T04:57:54;2.22;;;1.00;;
18879;SDS011;9572;52.378;13.404;2023-07-24T05:00:22;0.90;;;0.90;;
18879;SDS011;9572;52.378;13.404;2023-07-24T05:02:49;1.65;;;1.10;;
18879;SDS011;9572;52.378;13.404;2023-07-24T05:05:16;1.33;;;1.20;;
18879;SDS011;9572;52.378;13.404;2023-07-24T05:07:44;3.25;;;1.00;;
18879;SDS011;9572;52.378;13.404;2023-07-24T05:10:12;2.28;;;1.10;;
18879;SDS011;9572;52.378;13.404;2023-07-24T05:12:40;2.25;;;1.10;;
18879;SDS011;9572;52.378;13.404;2023-07-24T05:15:09;1.02;;;0.77;;
18879;SDS011;9572;52.378;13.404;2023-07-24T05:17:36;1.10;;;1.00;;
18879;SDS011;9572;52.378;13.404;2023-07-24T05:20:03;1.17;;;0.90;;
18879;SDS011;9572;52.378;13.404;2023-07-24T05:22:31;3.58;;;1.23;;
18879;SDS011;9572;52.378;13.404;2023-07-24T05:24:58;1.80;;;1.02;;
18879;SDS011;9572;52.378;13.404;2023-07-24T05:27:26;2.33;;;0.73;;
18879;SDS011;9572;52.378;13.404;2023-07-24T05:29:54;2.35;;;0.93;;
18879;SDS011;9572;52.378;13.404;2023-07-24T05:32:21;7.93;;;1.25;;
18879;SDS011;9572;52.378;13.404;2023-07-24T05:34:48;1.80;;;1.13;;
18879;SDS011;9572;52.378;13.404;2023-07-24T05:37:15;0.95;;;0.85;;
18879;SDS011;9572;52.378;13.404;2023-07-24T05:39:43;1.10;;;1.00;;
18879;SDS011;9572;52.378;13.404;2023-07-24T05:42:09;1.40;;;1.30;;
18879;SDS011;9572;52.378;13.404;2023-07-24T05:44:38;1.40;;;1.17;;
18879;SDS011;9572;52.378;13.404;2023-07-24T05:47:05;1.52;;;1.20;;
18879;SDS011;9572;52.378;13.404;2023-07-24T05:49:32;1.67;;;1.05;;
18879;SDS011;9572;52.378;13.404;2023-07-24T05:51:59;1.52;;;1.20;;
18879;SDS011;9572;52.378;13.404;2023-07-24T05:54:26;0.80;;;0.80;;
18879;SDS011;9572;52.378;13.404;2023-07-24T05:56:54;1.20;;;1.10;;
18879;SDS011;9572;52.378;13.404;2023-07-24T05:59:21;1.23;;;0.90;;
18879;SDS011;9572;52.378;13.404;2023-07-24T06:01:50;1.10;;;1.00;;
18879;SDS011;9572;52.378;13.404;2023-07-24T06:04:17;1.77;;;1.30;;
18879;SDS011;9572;52.378;13.404;2023-07-24T06:06:47;1.50;;;1.40;;
18879;SDS011;9572;52.378;13.404;2023-07-24T06:09:14;2.20;;;1.23;;
18879;SDS011;9572;52.378;13.404;2023-07-24T06:11:41;1.60;;;1.50;;
18879;SDS011;9572;52.378;13.404;2023-07-24T06:14:08;2.15;;;1.30;;
18879;SDS011;9572;52.378;13.404;2023-07-24T06:16:35;1.70;;;1.50;;
18879;SDS011;9572;52.378;13.404;2023-07-24T06:19:04;1.63;;;1.50;;
18879;SDS011;9572;52.378;13.404;2023-07-24T06:21:31;1.48;;;1.38;;
18879;SDS011;9572;52.378;13.404;2023-07-24T06:23:58;1.92;;;1.83;;
18879;SDS011;9572;52.378;13.404;2023-07-24T06:26:25;2.13;;;1.77;;
18879;SDS011;9572;52.378;13.404;2023-07-24T06:28:52;2.10;;;1.95;;
18879;SDS011;9572;52.378;13.404;2023-07-24T06:31:19;2.78;;;1.92;;
18879;SDS011;9572;52.378;13.404;2023-07-24T06:33:46;2.13;;;1.92;;
18879;SDS011;9572;52.378;13.404;2023-07-24T06:36:15;3.92;;;1.92;;
18879;SDS011;9572;52.378;13.404;2023-07-24T06:38:42;2.10;;;2.00;;
18879;SDS011;9572;52.378;13.404;2023-07-24T06:41:09;2.17;;;1.98;;
18879;SDS011;9572;52.378;13.404;2023-07-24T06:43:36;1.83;;;1.73;;
18879;SDS011;9572;52.378;13.404;2023-07-24T06:46:03;2.33;;;2.10;;
18879;SDS011;9572;52.378;13.404;2023-07-24T06:48:30;2.20;;;1.60;;
18879;SDS011;9572;52.378;13.404;2023-07-24T06:54:12;1.95;;;1.67;;
18879;SDS011;9572;52.378;13.404;2023-07-24T06:56:39;1.85;;;1.75;;
18879;SDS011;9572;52.378;13.404;2023-07-24T06:59:06;2.15;;;1.95;;
18879;SDS011;9572;52.378;13.404;2023-07-24T07:01:33;2.58;;;2.00;;
18879;SDS011;9572;52.378;13.404;2023-07-24T07:04:00;2.97;;;2.10;;
18879;SDS011;9572;52.378;13.404;2023-07-24T07:06:27;3.97;;;2.30;;
18879;SDS011;9572;52.378;13.404;2023-07-24T07:08:54;1.90;;;1.80;;
18879;SDS011;9572;52.378;13.404;2023-07-24T07:11:23;2.72;;;2.20;;
18879;SDS011;9572;52.378;13.404;2023-07-24T07:13:50;2.30;;;2.10;;
18879;SDS011;9572;52.378;13.404;2023-07-24T07:16:17;2.78;;;1.90;;
18879;SDS011;9572;52.378;13.404;2023-07-24T07:18:44;2.15;;;1.92;;
18879;SDS011;9572;52.378;13.404;2023-07-24T07:21:11;3.88;;;2.08;;
18879;SDS011;9572;52.378;13.404;2023-07-24T07:23:38;2.80;;;2.13;;
18879;SDS011;9572;52.378;13.404;2023-07-24T07:26:05;3.08;;;1.90;;
18879;SDS011;9572;52.378;13.404;2023-07-24T07:28:33;2.35;;;2.05;;
18879;SDS011;9572;52.378;13.404;2023-07-24T07:31:01;2.00;;;1.85;;
18879;SDS011;9572;52.378;13.404;2023-07-24T07:33:28;1.80;;;1.70;;
18879;SDS011;9572;52.378;13.404;2023-07-24T07:35:55;4.53;;;1.60;;
18879;SDS011;9572;52.378;13.404;2023-07-24T07:38:22;1.70;;;1.50;;
18879;SDS011;9572;52.378;13.404;2023-07-24T07:40:49;1.80;;;1.70;;
18879;SDS011;9572;52.378;13.404;2023-07-24T07:43:16;1.65;;;1.50;;
18879;SDS011;9572;52.378;13.404;2023-07-24T07:45:46;1.73;;;1.63;;
18879;SDS011;9572;52.378;13.404;2023-07-24T07:48:14;1.65;;;1.55;;
18879;SDS011;9572;52.378;13.404;2023-07-24T07:50:41;2.47;;;1.35;;
18879;SDS011;9572;52.378;13.404;2023-07-24T07:53:08;2.35;;;1.48;;
18879;SDS011;9572;52.378;13.404;2023-07-24T07:55:35;1.92;;;1.55;;
18879;SDS011;9572;52.378;13.404;2023-07-24T07:58:02;2.15;;;1.67;;
18879;SDS011;9572;52.378;13.404;2023-07-24T08:00:29;2.17;;;1.70;;
18879;SDS011;9572;52.378;13.404;2023-07-24T08:02:57;2.67;;;1.88;;
18879;SDS011;9572;52.378;13.404;2023-07-24T08:05:24;1.83;;;1.73;;
18879;SDS011;9572;52.378;13.404;2023-07-24T08:07:51;1.45;;;1.35;;
18879;SDS011;9572;52.378;13.404;2023-07-24T08:10:18;1.48;;;1.35;;
18879;SDS011;9572;52.378;13.404;2023-07-24T08:12:45;1.40;;;1.30;;
18879;SDS011;9572;52.378;13.404;2023-07-24T08:15:12;1.85;;;1.60;;
18879;SDS011;9572;52.378;13.404;2023-07-24T08:17:40;1.67;;;1.50;;
18879;SDS011;9572;52.378;13.404;2023-07-24T08:20:09;3.00;;;1.30;;
18879;SDS011;9572;52.378;13.404;2023-07-24T08:22:36;1.52;;;1.42;;
18879;SDS011;9572;52.378;13.404;2023-07-24T08:25:03;1.85;;;1.55;;
18879;SDS011;9572;52.378;13.404;2023-07-24T08:27:31;2.50;;;1.50;;
18879;SDS011;9572;52.378;13.404;2023-07-24T08:29:58;3.10;;;1.45;;
18879;SDS011;9572;52.378;13.404;2023-07-24T08:32:25;1.60;;;1.50;;
18879;SDS011;9572;52.378;13.404;2023-07-24T08:34:51;2.33;;;1.50;;
18879;SDS011;9572;52.378;13.404;2023-07-24T08:37:20;2.28;;;1.50;;
18879;SDS011;9572;52.378;13.404;2023-07-24T08:39:47;3.90;;;1.67;;
18879;SDS011;9572;52.378;13.404;2023-07-24T08:42:14;2.80;;;1.40;;
18879;SDS011;9572;52.378;13.404;2023-07-24T08:44:41;3.05;;;1.42;;
18879;SDS011;9572;52.378;13.404;2023-07-24T08:47:09;3.08;;;1.40;;
18879;SDS011;9572;52.378;13.404;2023-07-24T08:49:38;2.55;;;1.50;;
18879;SDS011;9572;52.378;13.404;2023-07-24T08:52:06;1.98;;;1.77;;
18879;SDS011;9572;52.378;13.404;2023-07-24T08:54:36;7.00;;;1.67;;
18879;SDS011;9572;52.378;13.404;2023-07-24T08:57:04;3.90;;;1.65;;
18879;SDS011;9572;52.378;13.404;2023-07-24T08:59:33;4.03;;;1.70;;
18879;SDS011;9572;52.378;13.404;2023-07-24T09:02:00;2.47;;;1.58;;
18879;SDS011;9572;52.378;13.404;2023-07-24T09:04:28;3.65;;;1.55;;
18879;SDS011;9572;52.378;13.404;2023-07-24T09:06:56;5.93;;;1.70;;
18879;SDS011;9572;52.378;13.404;2023-07-24T09:09:28;1.77;;;1.58;;
18879;SDS011;9572;52.378;13.404;2023-07-24T09:11:57;1.45;;;1.30;;
18879;SDS011;9572;52.378;13.404;2023-07-24T09:14:25;4.97;;;1.75;;
18879;SDS011;9572;52.378;13.404;2023-07-24T09:19:38;1.52;;;1.42;;
18879;SDS011;9572;52.378;13.404;2023-07-24T09:22:12;3.88;;;1.70;;
18879;SDS011;9572;52.378;13.404;2023-07-24T09:24:49;4.35;;;1.20;;
18879;SDS011;9572;52.378;13.404;2023-07-24T09:27:18;3.33;;;1.58;;
18879;SDS011;9572;52.378;13.404;2023-07-24T09:29:46;4.25;;;1.73;;
18879;SDS011;9572;52.378;13.404;2023-07-24T09:32:19;5.25;;;1.50;;
18879;SDS011;9572;52.378;13.404;2023-07-24T09:34:47;2.35;;;1.65;;
18879;SDS011;9572;52.378;13.404;2023-07-24T09:37:22;2.13;;;1.60;;
18879;SDS011;9572;52.378;13.404;2023-07-24T09:39:50;2.08;;;1.65;;
18879;SDS011;9572;52.378;13.404;2023-07-24T09:42:26;4.32;;;1.83;;
18879;SDS011;9572;52.378;13.404;2023-07-24T09:44:54;2.13;;;1.70;;
18879;SDS011;9572;52.378;13.404;2023-07-24T09:47:21;2.85;;;1.90;;
18879;SDS011;9572;52.378;13.404;2023-07-24T09:49:48;4.63;;;2.05;;
18879;SDS011;9572;52.378;13.404;2023-07-24T09:52:17;3.47;;;2.10;;
18879;SDS011;9572;52.378;13.404;2023-07-24T09:54:46;2.90;;;1.90;;
18879;SDS011;9572;52.378;13.404;2023-07-24T09:57:22;2.45;;;2.15;;
18879;SDS011;9572;52.378;13.404;2023-07-24T09:59:50;2.55;;;1.92;;
18879;SDS011;9572;52.378;13.404;2023-07-24T10:02:19;3.63;;;1.80;;
18879;SDS011;9572;52.378;13.404;2023-07-24T10:04:47;4.18;;;2.00;;
18879;SDS011;9572;52.378;13.404;2023-07-24T10:07:15;3.17;;;1.95;;
18879;SDS011;9572;52.378;13.404;2023-07-24T10:09:46;2.88;;;2.22;;
18879;SDS011;9572;52.378;13.404;2023-07-24T10:12:14;3.70;;;2.33;;
18879;SDS011;9572;52.378;13.404;2023-07-24T10:14:43;2.80;;;2.33;;
18879;SDS011;9572;52.378;13.404;2023-07-24T10:17:11;3.22;;;2.13;;
18879;SDS011;9572;52.378;13.404;2023-07-24T10:19:39;7.88;;;2.60;;
18879;SDS011;9572;52.378;13.404;2023-07-24T10:22:08;6.10;;;2.13;;
18879;SDS011;9572;52.378;13.404;2023-07-24T10:24:36;6.05;;;2.58;;
18879;SDS011;9572;52.378;13.404;2023-07-24T10:27:03;4.78;;;2.28;;
18879;SDS011;9572;52.378;13.404;2023-07-24T10:29:34;3.08;;;2.40;;
18879;SDS011;9572;52.378;13.404;2023-07-24T10:32:03;4.68;;;2.70;;
18879;SDS011;9572;52.378;13.404;2023-07-24T10:34:37;3.20;;;2.90;;
18879;SDS011;9572;52.378;13.404;2023-07-24T10:37:06;5.55;;;3.05;;
18879;SDS011;9572;52.378;13.404;2023-07-24T10:39:38;6.95;;;3.22;;
18879;SDS011;9572;52.378;13.404;2023-07-24T10:42:07;3.83;;;2.83;;
18879;SDS011;9572;52.378;13.404;2023-07-24T10:44:35;3.92;;;3.25;;
18879;SDS011;9572;52.378;13.404;2023-07-24T10:47:03;7.97;;;3.10;;
18879;SDS011;9572;52.378;13.404;2023-07-24T10:49:30;6.20;;;3.40;;
18879;SDS011;9572;52.378;13.404;2023-07-24T10:51:57;4.22;;;3.40;;
18879;SDS011;9572;52.378;13.404;2023-07-24T10:54:25;6.40;;;3.50;;
18879;SDS011;9572;52.378;13.404;2023-07-24T10:56:57;6.35;;;3.45;;
18879;SDS011;9572;52.378;13.404;2023-07-24T10:59:35;5.63;;;3.40;;
18879;SDS011;9572;52.378;13.404;2023-07-24T11:02:04;4.95;;;3.40;;
18879;SDS011;9572;52.378;13.404;2023-07-24T11:04:32;4.97;;;3.47;;
18879;SDS011;9572;52.378;13.404;2023-07-24T11:07:00;5.63;;;3.20;;
18879;SDS011;9572;52.378;13.404;2023-07-24T11:09:34;5.07;;;3.45;;
18879;SDS011;9572;52.378;13.404;2023-07-24T11:12:09;4.97;;;3.50;;
18879;SDS011;9572;52.378;13.404;2023-07-24T11:14:45;7.20;;;4.10;;
18879;SDS011;9572;52.378;13.404;2023-07-24T11:17:17;5.47;;;3.40;;
18879;SDS011;9572;52.378;13.404;2023-07-24T11:19:44;4.75;;;3.28;;
18879;SDS011;9572;52.378;13.404;2023-07-24T11:22:11;7.95;;;3.15;;
18879;SDS011;9572;52.378;13.404;2023-07-24T11:24:42;13.43;;;3.40;;
18879;SDS011;9572;52.378;13.404;2023-07-24T11:27:10;6.30;;;3.67;;
18879;SDS011;9572;52.378;13.404;2023-07-24T11:29:40;11.52;;;3.92;;
18879;SDS011;9572;52.378;13.404;2023-07-24T11:32:07;5.40;;;3.85;;
18879;SDS011;9572;52.378;13.404;2023-07-24T11:34:36;7.43;;;3.22;;
18879;SDS011;9572;52.378;13.404;2023-07-24T11:37:03;5.68;;;3.30;;
18879;SDS011;9572;52.378;13.404;2023-07-24T11:39:31;8.38;;;3.88;;
18879;SDS011;9572;52.378;13.404;2023-07-24T11:41:59;5.93;;;3.58;;
18879;SDS011;9572;52.378;13.404;2023-07-24T11:44:27;8.35;;;3.25;;
18879;SDS011;9572;52.378;13.404;2023-07-24T11:47:04;5.75;;;3.63;;
18879;SDS011;9572;52.378;13.404;2023-07-24T11:49:32;6.05;;;3.70;;
18879;SDS011;9572;52.378;13.404;2023-07-24T11:52:01;7.60;;;4.20;;
18879;SDS011;9572;52.378;13.404;2023-07-24T11:54:29;4.43;;;3.58;;
18879;SDS011;9572;52.378;13.404;2023-07-24T11:56:56;10.95;;;3.90;;
18879;SDS011;9572;52.378;13.404;2023-07-24T11:59:23;15.57;;;3.80;;
18879;SDS011;9572;52.378;13.404;2023-07-24T12:01:51;18.30;;;4.35;;
18879;SDS011;9572;52.378;13.404;2023-07-24T12:04:18;12.60;;;4.25;;
18879;SDS011;9572;52.378;13.404;2023-07-24T12:06:45;9.93;;;4.30;;
18879;SDS011;9572;52.378;13.404;2023-07-24T12:09:14;9.88;;;4.00;;
18879;SDS011;9572;52.378;13.404;2023-07-24T12:11:42;5.68;;;3.75;;
18879;SDS011;9572;52.378;13.404;2023-07-24T12:14:09;6.00;;;4.25;;
18879;SDS011;9572;52.378;13.404;2023-07-24T12:16:36;6.55;;;3.95;;
18879;SDS011;9572;52.378;13.404;2023-07-24T12:19:04;10.40;;;3.63;;
18879;SDS011;9572;52.378;13.404;2023-07-24T12:21:31;7.97;;;3.95;;
18879;SDS011;9572;52.378;13.404;2023-07-24T12:23:58;6.55;;;4.13;;
18879;SDS011;9572;52.378;13.404;2023-07-24T12:26:26;9.60;;;4.00;;
18879;SDS011;9572;52.378;13.404;2023-07-24T12:28:53;13.35;;;4.20;;
18879;SDS011;9572;52.378;13.404;2023-07-24T12:31:20;11.82;;;4.28;;
18879;SDS011;9572;52.378;13.404;2023-07-24T12:33:47;8.10;;;4.10;;
18879;SDS011;9572;52.378;13.404;2023-07-24T12:36:14;9.68;;;4.47;;
18879;SDS011;9572;52.378;13.404;2023-07-24T12:38:41;6.85;;;4.20;;
18879;SDS011;9572;52.378;13.404;2023-07-24T12:41:09;5.97;;;4.07;;
18879;SDS011;9572;52.378;13.404;2023-07-24T12:43:37;5.75;;;4.00;;
18879;SDS011;9572;52.378;13.404;2023-07-24T12:46:04;9.18;;;4.40;;
18879;SDS011;9572;52.378;13.404;2023-07-24T12:48:31;4.50;;;3.72;;
18879;SDS011;9572;52.378;13.404;2023-07-24T12:50:58;5.32;;;3.60;;
18879;SDS011;9572;52.378;13.404;2023-07-24T12:53:26;7.75;;;4.22;;
18879;SDS011;9572;52.378;13.404;2023-07-24T12:55:53;6.43;;;4.07;;
18879;SDS011;9572;52.378;13.404;2023-07-24T12:58:20;5.60;;;3.55;;
18879;SDS011;9572;52.378;13.404;2023-07-24T13:00:48;10.93;;;3.95;;
18879;SDS011;9572;52.378;13.404;2023-07-24T13:03:15;5.05;;;3.08;;
18879;SDS011;9572;52.378;13.404;2023-07-24T13:05:42;6.15;;;3.30;;
18879;SDS011;9572;52.378;13.404;2023-07-24T13:08:09;6.05;;;2.85;;
18879;SDS011;9572;52.378;13.404;2023-07-24T13:10:36;4.43;;;2.72;;
18879;SDS011;9572;52.378;13.404;2023-07-24T13:13:03;9.82;;;2.88;;
18879;SDS011;9572;52.378;13.404;2023-07-24T13:15:30;4.88;;;2.88;;
18879;SDS011;9572;52.378;13.404;2023-07-24T13:17:58;3.42;;;2.55;;
18879;SDS011;9572;52.378;13.404;2023-07-24T13:20:25;5.57;;;2.92;;
18879;SDS011;9572;52.378;13.404;2023-07-24T13:22:52;3.10;;;2.80;;
18879;SDS011;9572;52.378;13.404;2023-07-24T13:25:19;3.50;;;2.72;;
18879;SDS011;9572;52.378;13.404;2023-07-24T13:27:46;4.28;;;2.97;;
18879;SDS011;9572;52.378;13.404;2023-07-24T13:30:13;3.60;;;2.83;;
18879;SDS011;9572;52.378;13.404;2023-07-24T13:32:40;5.35;;;2.33;;
18879;SDS011;9572;52.378;13.404;2023-07-24T13:35:09;3.05;;;2.67;;
18879;SDS011;9572;52.378;13.404;2023-07-24T13:37:36;3.75;;;3.13;;
18879;SDS011;9572;52.378;13.404;2023-07-24T13:40:03;4.45;;;2.65;;
18879;SDS011;9572;52.378;13.404;2023-07-24T13:42:31;3.75;;;2.42;;
18879;SDS011;9572;52.378;13.404;2023-07-24T13:44:58;5.38;;;2.60;;
18879;SDS011;9572;52.378;13.404;2023-07-24T13:47:26;6.35;;;2.97;;
18879;SDS011;9572;52.378;13.404;2023-07-24T13:49:52;3.22;;;2.65;;
18879;SDS011;9572;52.378;13.404;2023-07-24T13:52:21;4.75;;;2.67;;
18879;SDS011;9572;52.378;13.404;2023-07-24T13:54:48;2.53;;;2.30;;
18879;SDS011;9572;52.378;13.404;2023-07-24T13:57:15;4.18;;;3.17;;
18879;SDS011;9572;52.378;13.404;2023-07-24T13:59:42;3.33;;;2.60;;
18879;SDS011;9572;52.378;13.404;2023-07-24T14:02:09;4.70;;;2.90;;
18879;SDS011;9572;52.378;13.404;2023-07-24T14:04:37;3.92;;;2.90;;
18879;SDS011;9572;52.378;13.404;2023-07-24T14:07:12;3.72;;;2.80;;
18879;SDS011;9572;52.378;13.404;2023-07-24T14:09:45;3.38;;;2.88;;
18879;SDS011;9572;52.378;13.404;2023-07-24T14:12:12;4.03;;;2.90;;
18879;SDS011;9572;52.378;13.404;2023-07-24T14:14:39;3.00;;;2.67;;
18879;SDS011;9572;52.378;13.404;2023-07-24T14:17:10;4.63;;;3.22;;
18879;SDS011;9572;52.378;13.404;2023-07-24T14:19:40;7.90;;;3.13;;
18879;SDS011;9572;52.378;13.404;2023-07-24T14:22:11;4.53;;;2.58;;
18879;SDS011;9572;52.378;13.404;2023-07-24T14:24:45;2.78;;;2.35;;
18879;SDS011;9572;52.378;13.404;2023-07-24T14:27:12;4.45;;;2.63;;
18879;SDS011;9572;52.378;13.404;2023-07-24T14:29:39;6.38;;;2.60;;
18879;SDS011;9572;52.378;13.404;2023-07-24T14:32:11;3.60;;;2.63;;
18879;SDS011;9572;52.378;13.404;2023-07-24T14:34:40;3.33;;;2.55;;
18879;SDS011;9572;52.378;13.404;2023-07-24T14:37:09;3.92;;;2.90;;
18879;SDS011;9572;52.378;13.404;2023-07-24T14:39:55;4.18;;;2.97;;
18879;SDS011;9572;52.378;13.404;2023-07-24T14:42:22;9.35;;;2.95;;
18879;SDS011;9572;52.378;13.404;2023-07-24T14:44:49;3.55;;;2.40;;
18879;SDS011;9572;52.378;13.404;2023-07-24T14:47:26;5.10;;;2.47;;
18879;SDS011;9572;52.378;13.404;2023-07-24T14:49:53;2.85;;;2.35;;
18879;SDS011;9572;52.378;13.404;2023-07-24T14:52:20;3.22;;;2.50;;
18879;SDS011;9572;52.378;13.404;2023-07-24T14:54:49;3.42;;;2.67;;
18879;SDS011;9572;52.378;13.404;2023-07-24T14:57:26;4.65;;;2.95;;
18879;SDS011;9572;52.378;13.404;2023-07-24T14:59:53;4.07;;;2.40;;